Tres Arroyos, Argentina
Current Conditions -  °F | °C
As of 8:00 PM on Monday 24 Nov 2014 (Local Time) from SAZM Reporting Station
Clear Clear  
Wind Chill: 16°   Ceiling: Unl
Heat Index: 16°   Visibility: 6mi
Dew Point: 11°   Wind: 9mph
Humidity: 72%   Direction: 230°SW
Pressure: 29.85"   Gusts: NA
Location:  38.37°S, 60.27°W
Report Text: SAZM 242300Z 23008KT CAVOK 16/11 Q1011
Loading
Personal Weather Stations






























Interactive Weather Map New forecast layout! Learn more

10-Day Weather Forecast

Advertisements
Track Severe Weather on mobile